sensor_id;sensor_type;location;lat;lon;timestamp;pressure;altitude;pressure_sealevel;temperature;humidity
4133;BME280;2080;51.038;7.008;2022-08-24T00:00:51;75083.31;;;-142.53;100.00
4133;BME280;2080;51.038;7.008;2022-08-24T00:03:19;75089.16;;;-142.53;100.00
4133;BME280;2080;51.038;7.008;2022-08-24T00:05:45;75100.81;;;-142.53;100.00
4133;BME280;2080;51.038;7.008;2022-08-24T00:08:11;75091.09;;;-142.53;100.00
4133;BME280;2080;51.038;7.008;2022-08-24T00:10:37;75089.16;;;-142.53;100.00
4133;BME280;2080;51.038;7.008;2022-08-24T00:13:03;75081.38;;;-142.53;100.00
4133;BME280;2080;51.038;7.008;2022-08-24T00:15:29;75077.50;;;-142.53;100.00
4133;BME280;2080;51.038;7.008;2022-08-24T00:17:54;75077.50;;;-142.53;100.00
4133;BME280;2080;51.038;7.008;2022-08-24T00:20:24;75077.50;;;-142.53;100.00
4133;BME280;2080;51.038;7.008;2022-08-24T00:22:52;75073.63;;;-142.53;100.00
4133;BME280;2080;51.038;7.008;2022-08-24T00:25:20;75079.44;;;-142.53;100.00
4133;BME280;2080;51.038;7.008;2022-08-24T00:27:46;75085.28;;;-142.53;100.00
4133;BME280;2080;51.038;7.008;2022-08-24T00:30:16;75085.28;;;-142.53;100.00
4133;BME280;2080;51.038;7.008;2022-08-24T00:32:46;75089.16;;;-142.53;100.00
4133;BME280;2080;51.038;7.008;2022-08-24T00:35:16;75096.91;;;-142.53;100.00
4133;BME280;2080;51.038;7.008;2022-08-24T00:37:46;75098.84;;;-142.53;100.00
4133;BME280;2080;51.038;7.008;2022-08-24T00:40:24;75108.56;;;-142.53;100.00
4133;BME280;2080;51.038;7.008;2022-08-24T00:42:50;75116.34;;;-142.53;100.00
4133;BME280;2080;51.038;7.008;2022-08-24T00:45:17;75129.94;;;-142.53;100.00
4133;BME280;2080;51.038;7.008;2022-08-24T00:47:50;75120.22;;;-142.53;100.00
4133;BME280;2080;51.038;7.008;2022-08-24T00:50:24;75120.22;;;-142.53;100.00
4133;BME280;2080;51.038;7.008;2022-08-24T00:53:01;75118.28;;;-142.53;100.00
4133;BME280;2080;51.038;7.008;2022-08-24T00:55:33;75127.97;;;-142.53;100.00
4133;BME280;2080;51.038;7.008;2022-08-24T00:58:07;75135.75;;;-142.53;100.00
4133;BME280;2080;51.038;7.008;2022-08-24T01:00:41;75147.41;;;-142.53;100.00
4133;BME280;2080;51.038;7.008;2022-08-24T01:03:11;75155.16;;;-142.53;100.00
4133;BME280;2080;51.038;7.008;2022-08-24T01:05:39;75162.94;;;-142.53;100.00
4133;BME280;2080;51.038;7.008;2022-08-24T01:08:11;75170.69;;;-142.53;100.00
4133;BME280;2080;51.038;7.008;2022-08-24T01:10:44;75170.69;;;-142.53;100.00
4133;BME280;2080;51.038;7.008;2022-08-24T01:13:12;75168.75;;;-142.53;100.00
4133;BME280;2080;51.038;7.008;2022-08-24T01:15:41;75170.69;;;-142.53;100.00
4133;BME280;2080;51.038;7.008;2022-08-24T01:18:15;75182.34;;;-142.53;100.00
4133;BME280;2080;51.038;7.008;2022-08-24T01:21:24;75182.34;;;-142.53;100.00
4133;BME280;2080;51.038;7.008;2022-08-24T01:23:53;75182.34;;;-142.53;100.00
4133;BME280;2080;51.038;7.008;2022-08-24T01:26:27;75174.59;;;-142.53;100.00
4133;BME280;2080;51.038;7.008;2022-08-24T01:29:06;75178.47;;;-142.53;100.00
4133;BME280;2080;51.038;7.008;2022-08-24T01:31:33;75186.22;;;-142.53;100.00
4133;BME280;2080;51.038;7.008;2022-08-24T01:33:59;75176.53;;;-142.53;100.00
4133;BME280;2080;51.038;7.008;2022-08-24T01:36:41;75178.47;;;-142.53;100.00
4133;BME280;2080;51.038;7.008;2022-08-24T01:39:27;75194.00;;;-142.53;100.00
4133;BME280;2080;51.038;7.008;2022-08-24T01:41:54;75194.00;;;-142.53;100.00
4133;BME280;2080;51.038;7.008;2022-08-24T01:44:22;75194.00;;;-142.53;100.00
4133;BME280;2080;51.038;7.008;2022-08-24T01:46:50;75197.88;;;-142.53;100.00
4133;BME280;2080;51.038;7.008;2022-08-24T01:49:24;75201.75;;;-142.53;100.00
4133;BME280;2080;51.038;7.008;2022-08-24T01:51:50;75203.72;;;-142.53;100.00
4133;BME280;2080;51.038;7.008;2022-08-24T01:54:16;75201.75;;;-142.53;100.00
4133;BME280;2080;51.038;7.008;2022-08-24T01:56:46;75197.88;;;-142.53;100.00
4133;BME280;2080;51.038;7.008;2022-08-24T01:59:11;75197.88;;;-142.53;100.00
4133;BME280;2080;51.038;7.008;2022-08-24T02:01:40;75205.66;;;-142.53;100.00
4133;BME280;2080;51.038;7.008;2022-08-24T02:04:07;75211.47;;;-142.53;100.00
4133;BME280;2080;51.038;7.008;2022-08-24T02:06:33;75213.41;;;-142.53;100.00
4133;BME280;2080;51.038;7.008;2022-08-24T02:08:58;75209.53;;;-142.53;100.00
4133;BME280;2080;51.038;7.008;2022-08-24T02:11:28;75207.59;;;-142.53;100.00
4133;BME280;2080;51.038;7.008;2022-08-24T02:13:54;75207.59;;;-142.53;100.00
4133;BME280;2080;51.038;7.008;2022-08-24T02:16:20;75213.41;;;-142.53;100.00
4133;BME280;2080;51.038;7.008;2022-08-24T02:18:45;75219.25;;;-142.53;100.00
4133;BME280;2080;51.038;7.008;2022-08-24T02:21:12;75217.31;;;-142.53;100.00
4133;BME280;2080;51.038;7.008;2022-08-24T02:23:39;75228.94;;;-142.53;100.00
4133;BME280;2080;51.038;7.008;2022-08-24T02:26:09;75227.00;;;-142.53;100.00
4133;BME280;2080;51.038;7.008;2022-08-24T02:28:38;75232.84;;;-142.53;100.00
4133;BME280;2080;51.038;7.008;2022-08-24T02:31:05;75228.94;;;-142.53;100.00
4133;BME280;2080;51.038;7.008;2022-08-24T02:33:33;75232.84;;;-142.53;100.00
4133;BME280;2080;51.038;7.008;2022-08-24T02:36:01;75228.94;;;-142.53;100.00
4133;BME280;2080;51.038;7.008;2022-08-24T02:38:27;75232.84;;;-142.53;100.00
4133;BME280;2080;51.038;7.008;2022-08-24T02:40:52;75232.84;;;-142.53;100.00
4133;BME280;2080;51.038;7.008;2022-08-24T02:43:18;75240.59;;;-142.53;100.00
4133;BME280;2080;51.038;7.008;2022-08-24T02:45:46;75230.88;;;-142.53;100.00
4133;BME280;2080;51.038;7.008;2022-08-24T02:48:14;75232.84;;;-142.53;100.00
4133;BME280;2080;51.038;7.008;2022-08-24T02:50:47;75232.84;;;-142.53;100.00
4133;BME280;2080;51.038;7.008;2022-08-24T02:53:16;75246.44;;;-142.53;100.00
4133;BME280;2080;51.038;7.008;2022-08-24T02:55:42;75256.13;;;-142.53;100.00
4133;BME280;2080;51.038;7.008;2022-08-24T02:58:11;75267.78;;;-142.53;100.00
4133;BME280;2080;51.038;7.008;2022-08-24T03:00:41;75291.09;;;-142.53;100.00
4133;BME280;2080;51.038;7.008;2022-08-24T03:03:08;75291.09;;;-142.53;100.00
4133;BME280;2080;51.038;7.008;2022-08-24T03:05:33;75291.09;;;-142.53;100.00
4133;BME280;2080;51.038;7.008;2022-08-24T03:07:59;75294.97;;;-142.53;100.00
4133;BME280;2080;51.038;7.008;2022-08-24T03:10:25;75300.78;;;-142.53;100.00
4133;BME280;2080;51.038;7.008;2022-08-24T03:12:51;75314.38;;;-142.53;100.00
4133;BME280;2080;51.038;7.008;2022-08-24T03:15:22;75318.28;;;-142.53;100.00
4133;BME280;2080;51.038;7.008;2022-08-24T03:17:52;75318.28;;;-142.53;100.00
4133;BME280;2080;51.038;7.008;2022-08-24T03:20:20;75306.63;;;-142.53;100.00
4133;BME280;2080;51.038;7.008;2022-08-24T03:22:46;75310.50;;;-142.53;100.00
4133;BME280;2080;51.038;7.008;2022-08-24T03:25:13;75302.72;;;-142.53;100.00
4133;BME280;2080;51.038;7.008;2022-08-24T03:27:43;75291.09;;;-142.53;100.00
4133;BME280;2080;51.038;7.008;2022-08-24T03:30:11;75287.19;;;-142.53;100.00
4133;BME280;2080;51.038;7.008;2022-08-24T03:32:38;75285.25;;;-142.53;100.00
4133;BME280;2080;51.038;7.008;2022-08-24T03:35:07;75287.19;;;-142.53;100.00
4133;BME280;2080;51.038;7.008;2022-08-24T03:37:32;75291.09;;;-142.53;100.00
4133;BME280;2080;51.038;7.008;2022-08-24T03:39:58;75291.09;;;-142.53;100.00
4133;BME280;2080;51.038;7.008;2022-08-24T03:42:24;75291.09;;;-142.53;100.00
4133;BME280;2080;51.038;7.008;2022-08-24T03:44:49;75287.19;;;-142.53;100.00
4133;BME280;2080;51.038;7.008;2022-08-24T03:47:17;75296.91;;;-142.53;100.00
4133;BME280;2080;51.038;7.008;2022-08-24T03:49:49;75310.50;;;-142.53;100.00
4133;BME280;2080;51.038;7.008;2022-08-24T03:52:15;75322.16;;;-142.53;100.00
4133;BME280;2080;51.038;7.008;2022-08-24T03:54:41;75326.03;;;-142.53;100.00
4133;BME280;2080;51.038;7.008;2022-08-24T03:57:06;75339.63;;;-142.53;100.00
4133;BME280;2080;51.038;7.008;2022-08-24T03:59:34;75339.63;;;-142.53;100.00
4133;BME280;2080;51.038;7.008;2022-08-24T04:01:59;75333.81;;;-142.53;100.00
4133;BME280;2080;51.038;7.008;2022-08-24T04:04:25;75337.69;;;-142.53;100.00
4133;BME280;2080;51.038;7.008;2022-08-24T04:06:51;75345.44;;;-142.53;100.00
4133;BME280;2080;51.038;7.008;2022-08-24T04:09:16;75361.00;;;-142.53;100.00
4133;BME280;2080;51.038;7.008;2022-08-24T04:11:45;75370.69;;;-142.53;100.00
4133;BME280;2080;51.038;7.008;2022-08-24T04:14:11;75376.53;;;-142.53;100.00
4133;BME280;2080;51.038;7.008;2022-08-24T04:16:37;75388.16;;;-142.53;100.00
4133;BME280;2080;51.038;7.008;2022-08-24T04:19:07;75395.94;;;-142.53;100.00
4133;BME280;2080;51.038;7.008;2022-08-24T04:21:35;75397.88;;;-142.53;100.00
4133;BME280;2080;51.038;7.008;2022-08-24T04:24:04;75403.72;;;-142.53;100.00
4133;BME280;2080;51.038;7.008;2022-08-24T04:26:32;75403.72;;;-142.53;100.00
4133;BME280;2080;51.038;7.008;2022-08-24T04:28:59;75399.81;;;-142.53;100.00
4133;BME280;2080;51.038;7.008;2022-08-24T04:31:26;75395.94;;;-142.53;100.00
4133;BME280;2080;51.038;7.008;2022-08-24T04:33:55;75394.00;;;-142.53;100.00
4133;BME280;2080;51.038;7.008;2022-08-24T04:36:21;75384.28;;;-142.53;100.00
4133;BME280;2080;51.038;7.008;2022-08-24T04:38:47;75388.16;;;-142.53;100.00
4133;BME280;2080;51.038;7.008;2022-08-24T04:41:14;75386.22;;;-142.53;100.00
4133;BME280;2080;51.038;7.008;2022-08-24T04:43:40;75390.13;;;-142.53;100.00
4133;BME280;2080;51.038;7.008;2022-08-24T04:46:10;75395.94;;;-142.53;100.00
4133;BME280;2080;51.038;7.008;2022-08-24T04:48:40;75403.72;;;-142.53;100.00
4133;BME280;2080;51.038;7.008;2022-08-24T04:51:09;75392.06;;;-142.53;100.00
4133;BME280;2080;51.038;7.008;2022-08-24T04:53:38;75386.22;;;-142.53;100.00
4133;BME280;2080;51.038;7.008;2022-08-24T04:56:11;75384.28;;;-142.53;100.00
4133;BME280;2080;51.038;7.008;2022-08-24T04:58:37;75380.41;;;-142.53;100.00
4133;BME280;2080;51.038;7.008;2022-08-24T05:01:08;75370.69;;;-142.53;100.00
4133;BME280;2080;51.038;7.008;2022-08-24T05:03:34;75368.75;;;-142.53;100.00
4133;BME280;2080;51.038;7.008;2022-08-24T05:05:59;75372.63;;;-142.53;100.00
4133;BME280;2080;51.038;7.008;2022-08-24T05:08:25;75368.75;;;-142.53;100.00
4133;BME280;2080;51.038;7.008;2022-08-24T05:10:50;75361.00;;;-142.53;100.00
4133;BME280;2080;51.038;7.008;2022-08-24T05:13:18;75345.44;;;-142.53;100.00
4133;BME280;2080;51.038;7.008;2022-08-24T05:15:46;75337.69;;;-142.53;100.00
4133;BME280;2080;51.038;7.008;2022-08-24T05:18:13;75322.16;;;-142.53;100.00
4133;BME280;2080;51.038;7.008;2022-08-24T05:20:40;75312.44;;;-142.53;100.00
4133;BME280;2080;51.038;7.008;2022-08-24T05:23:06;75304.69;;;-142.53;100.00
4133;BME280;2080;51.038;7.008;2022-08-24T05:25:31;75306.63;;;-142.53;100.00
4133;BME280;2080;51.038;7.008;2022-08-24T05:27:57;75302.72;;;-142.53;100.00
4133;BME280;2080;51.038;7.008;2022-08-24T05:30:22;75298.84;;;-142.53;100.00
4133;BME280;2080;51.038;7.008;2022-08-24T05:32:47;75298.84;;;-142.53;100.00
4133;BME280;2080;51.038;7.008;2022-08-24T05:35:13;75294.97;;;-142.53;100.00
4133;BME280;2080;51.038;7.008;2022-08-24T05:37:39;75287.19;;;-142.53;100.00
4133;BME280;2080;51.038;7.008;2022-08-24T05:40:07;75287.19;;;-142.53;100.00
4133;BME280;2080;51.038;7.008;2022-08-24T05:42:34;75283.31;;;-142.53;100.00
4133;BME280;2080;51.038;7.008;2022-08-24T05:45:02;75271.66;;;-142.53;100.00
4133;BME280;2080;51.038;7.008;2022-08-24T05:47:30;75261.97;;;-142.53;100.00
4133;BME280;2080;51.038;7.008;2022-08-24T05:49:55;75248.38;;;-142.53;100.00
4133;BME280;2080;51.038;7.008;2022-08-24T05:52:21;75240.59;;;-142.53;100.00
4133;BME280;2080;51.038;7.008;2022-08-24T05:54:56;75225.06;;;-142.53;100.00
4133;BME280;2080;51.038;7.008;2022-08-24T05:57:26;75209.53;;;-142.53;100.00
4133;BME280;2080;51.038;7.008;2022-08-24T05:59:57;75197.88;;;-142.53;100.00
4133;BME280;2080;51.038;7.008;2022-08-24T06:02:25;75178.47;;;-142.53;100.00
4133;BME280;2080;51.038;7.008;2022-08-24T06:04:50;75170.69;;;-142.53;100.00
4133;BME280;2080;51.038;7.008;2022-08-24T06:07:15;75164.88;;;-142.53;100.00
4133;BME280;2080;51.038;7.008;2022-08-24T06:09:45;75162.94;;;-142.53;98.98
4133;BME280;2080;51.038;7.008;2022-08-24T06:12:12;75166.81;;;-142.53;96.77
4133;BME280;2080;51.038;7.008;2022-08-24T06:14:37;75159.06;;;-142.53;95.71
4133;BME280;2080;51.038;7.008;2022-08-24T06:17:04;75145.47;;;-142.53;94.12
4133;BME280;2080;51.038;7.008;2022-08-24T06:19:30;75139.63;;;-142.53;92.50
4133;BME280;2080;51.038;7.008;2022-08-24T06:22:00;75124.09;;;-142.53;91.39
4133;BME280;2080;51.038;7.008;2022-08-24T06:24:27;75124.09;;;-142.53;90.17
4133;BME280;2080;51.038;7.008;2022-08-24T06:27:14;75108.56;;;-142.53;89.35
4133;BME280;2080;51.038;7.008;2022-08-24T06:29:46;75089.16;;;-142.53;88.35
4133;BME280;2080;51.038;7.008;2022-08-24T06:32:11;75091.09;;;-142.53;87.63
4133;BME280;2080;51.038;7.008;2022-08-24T06:34:39;75077.50;;;-142.53;85.70
4133;BME280;2080;51.038;7.008;2022-08-24T06:37:04;75063.91;;;-142.53;83.96
4133;BME280;2080;51.038;7.008;2022-08-24T06:39:30;75056.16;;;-142.53;82.28
4133;BME280;2080;51.038;7.008;2022-08-24T06:41:57;75034.78;;;-142.53;80.89
4133;BME280;2080;51.038;7.008;2022-08-24T06:44:23;75009.56;;;-142.53;78.93
4133;BME280;2080;51.038;7.008;2022-08-24T06:46:48;74994.00;;;-142.53;78.00
4133;BME280;2080;51.038;7.008;2022-08-24T06:49:19;74980.41;;;-142.53;77.31
4133;BME280;2080;51.038;7.008;2022-08-24T06:51:45;74972.66;;;-142.53;75.94
4133;BME280;2080;51.038;7.008;2022-08-24T06:54:12;74957.13;;;-142.53;75.73
4133;BME280;2080;51.038;7.008;2022-08-24T06:56:38;74947.41;;;-142.53;75.16
4133;BME280;2080;51.038;7.008;2022-08-24T06:59:04;74933.81;;;-142.53;74.86
4133;BME280;2080;51.038;7.008;2022-08-24T07:01:32;74928.00;;;-142.53;74.96
4133;BME280;2080;51.038;7.008;2022-08-24T07:03:57;74922.19;;;-142.53;73.54
4133;BME280;2080;51.038;7.008;2022-08-24T07:06:25;74906.66;;;-142.53;71.94
4133;BME280;2080;51.038;7.008;2022-08-24T07:08:51;74895.00;;;-142.53;70.48
4133;BME280;2080;51.038;7.008;2022-08-24T07:11:20;74883.34;;;-142.53;69.96
4133;BME280;2080;51.038;7.008;2022-08-24T07:13:47;74875.59;;;-142.53;69.32
4133;BME280;2080;51.038;7.008;2022-08-24T07:16:14;74871.69;;;-142.53;68.61
4133;BME280;2080;51.038;7.008;2022-08-24T07:18:43;74867.81;;;-142.53;68.52
4133;BME280;2080;51.038;7.008;2022-08-24T07:21:08;74856.16;;;-142.53;67.42
4133;BME280;2080;51.038;7.008;2022-08-24T07:23:37;74844.53;;;-142.53;66.53
4133;BME280;2080;51.038;7.008;2022-08-24T07:26:07;74848.41;;;-142.53;67.08
4133;BME280;2080;51.038;7.008;2022-08-24T07:28:37;74836.75;;;-142.53;66.44
4133;BME280;2080;51.038;7.008;2022-08-24T07:31:04;74825.09;;;-142.53;65.25
4133;BME280;2080;51.038;7.008;2022-08-24T07:33:30;74805.69;;;-142.53;64.50
4133;BME280;2080;51.038;7.008;2022-08-24T07:35:55;74795.97;;;-142.53;63.09
4133;BME280;2080;51.038;7.008;2022-08-24T07:38:21;74786.28;;;-142.53;61.95
4133;BME280;2080;51.038;7.008;2022-08-24T07:40:48;74784.34;;;-142.53;61.95
4133;BME280;2080;51.038;7.008;2022-08-24T07:43:16;74762.97;;;-142.53;60.16
4133;BME280;2080;51.038;7.008;2022-08-24T07:45:41;74759.09;;;-142.53;59.63
4133;BME280;2080;51.038;7.008;2022-08-24T07:48:12;74743.56;;;-142.53;59.00
4133;BME280;2080;51.038;7.008;2022-08-24T07:50:38;74735.81;;;-142.53;58.00
4133;BME280;2080;51.038;7.008;2022-08-24T07:53:05;74724.16;;;-142.53;56.82
4133;BME280;2080;51.038;7.008;2022-08-24T07:55:31;74704.75;;;-142.53;56.17
4133;BME280;2080;51.038;7.008;2022-08-24T07:57:58;74675.63;;;-142.53;55.73
4133;BME280;2080;51.038;7.008;2022-08-24T08:00:26;74669.78;;;-142.53;55.31
4133;BME280;2080;51.038;7.008;2022-08-24T08:02:52;74650.38;;;-142.53;54.48
4133;BME280;2080;51.038;7.008;2022-08-24T08:05:22;74642.63;;;-142.53;53.38
4133;BME280;2080;51.038;7.008;2022-08-24T08:07:51;74621.25;;;-142.53;52.70
4133;BME280;2080;51.038;7.008;2022-08-24T08:10:18;74615.44;;;-142.53;52.30
4133;BME280;2080;51.038;7.008;2022-08-24T08:12:44;74613.50;;;-142.53;52.13
4133;BME280;2080;51.038;7.008;2022-08-24T08:15:10;74599.91;;;-142.53;51.58
4133;BME280;2080;51.038;7.008;2022-08-24T08:17:36;74592.13;;;-142.53;50.95
4133;BME280;2080;51.038;7.008;2022-08-24T08:20:04;74584.38;;;-142.53;50.72
4133;BME280;2080;51.038;7.008;2022-08-24T08:22:32;74572.72;;;-142.53;49.60
4133;BME280;2080;51.038;7.008;2022-08-24T08:25:16;74553.31;;;-142.53;49.73
4133;BME280;2080;51.038;7.008;2022-08-24T08:27:43;74547.50;;;-142.53;49.15
4133;BME280;2080;51.038;7.008;2022-08-24T08:30:11;74533.91;;;-142.53;48.58
4133;BME280;2080;51.038;7.008;2022-08-24T08:32:36;74514.50;;;-142.53;48.04
4133;BME280;2080;51.038;7.008;2022-08-24T08:35:03;74526.13;;;-142.53;47.02
4133;BME280;2080;51.038;7.008;2022-08-24T08:37:30;74500.91;;;-142.53;46.99
4133;BME280;2080;51.038;7.008;2022-08-24T08:39:56;74479.53;;;-142.53;46.15
4133;BME280;2080;51.038;7.008;2022-08-24T08:50:52;74419.38;;;-142.53;44.65
4133;BME280;2080;51.038;7.008;2022-08-24T09:00:56;74328.13;;;-142.53;43.10
4133;BME280;2080;51.038;7.008;2022-08-24T09:23:05;74256.31;;;-142.53;40.67
4133;BME280;2080;51.038;7.008;2022-08-24T09:28:49;74223.31;;;-142.53;40.34
4133;BME280;2080;51.038;7.008;2022-08-24T09:37:00;74192.25;;;-142.53;39.54
4133;BME280;2080;51.038;7.008;2022-08-24T09:48:30;74168.97;;;-142.53;38.48
4133;BME280;2080;51.038;7.008;2022-08-24T09:57:19;74083.56;;;-142.53;38.42
4133;BME280;2080;51.038;7.008;2022-08-24T10:02:43;74068.03;;;-142.53;37.76
4133;BME280;2080;51.038;7.008;2022-08-24T10:07:57;74036.97;;;-142.53;37.44
4133;BME280;2080;51.038;7.008;2022-08-24T10:16:32;73969.03;;;-142.53;36.74
4133;BME280;2080;51.038;7.008;2022-08-24T10:35:15;73842.88;;;-142.53;35.16
4133;BME280;2080;51.038;7.008;2022-08-24T10:38:09;73844.81;;;-142.53;35.04
4133;BME280;2080;51.038;7.008;2022-08-24T10:52:24;73796.28;;;-142.53;34.23
4133;BME280;2080;51.038;7.008;2022-08-24T10:54:51;73792.41;;;-142.53;34.58
4133;BME280;2080;51.038;7.008;2022-08-24T10:57:35;73773.00;;;-142.53;34.33
4133;BME280;2080;51.038;7.008;2022-08-24T11:00:07;73757.47;;;-142.53;33.90
4133;BME280;2080;51.038;7.008;2022-08-24T11:02:40;73788.53;;;-142.53;33.94
4133;BME280;2080;51.038;7.008;2022-08-24T11:05:11;73773.00;;;-142.53;34.12
4133;BME280;2080;51.038;7.008;2022-08-24T11:10:25;73757.47;;;-142.53;33.89
4133;BME280;2080;51.038;7.008;2022-08-24T11:12:52;73765.25;;;-142.53;33.82
4133;BME280;2080;51.038;7.008;2022-08-24T11:15:22;73741.94;;;-142.53;33.53
4133;BME280;2080;51.038;7.008;2022-08-24T11:18:06;73726.41;;;-142.53;33.29
4133;BME280;2080;51.038;7.008;2022-08-24T11:20:35;73710.91;;;-142.53;33.54
4133;BME280;2080;51.038;7.008;2022-08-24T11:25:54;73672.09;;;-142.53;33.25
4133;BME280;2080;51.038;7.008;2022-08-24T11:28:27;73656.56;;;-142.53;33.26
4133;BME280;2080;51.038;7.008;2022-08-24T11:30:54;73648.78;;;-142.53;33.00
4133;BME280;2080;51.038;7.008;2022-08-24T11:33:45;73629.38;;;-142.53;32.37
4133;BME280;2080;51.038;7.008;2022-08-24T11:36:19;73629.38;;;-142.53;32.38
4133;BME280;2080;51.038;7.008;2022-08-24T11:38:45;73621.63;;;-142.53;32.02
4133;BME280;2080;51.038;7.008;2022-08-24T11:44:47;73586.69;;;-142.53;31.66
4133;BME280;2080;51.038;7.008;2022-08-24T11:47:33;73590.56;;;-142.53;31.61
4133;BME280;2080;51.038;7.008;2022-08-24T12:00:45;73555.63;;;-142.53;30.45
4133;BME280;2080;51.038;7.008;2022-08-24T12:08:52;73547.88;;;-142.53;30.95
4133;BME280;2080;51.038;7.008;2022-08-24T12:14:22;73536.22;;;-142.53;30.68
4133;BME280;2080;51.038;7.008;2022-08-24T12:19:39;73609.97;;;-142.53;30.69
4133;BME280;2080;51.038;7.008;2022-08-24T12:22:12;73594.44;;;-142.53;30.71
4133;BME280;2080;51.038;7.008;2022-08-24T12:24:48;73590.56;;;-142.53;30.82
4133;BME280;2080;51.038;7.008;2022-08-24T12:27:21;73571.16;;;-142.53;30.66
4133;BME280;2080;51.038;7.008;2022-08-24T12:29:55;73551.75;;;-142.53;30.68
4133;BME280;2080;51.038;7.008;2022-08-24T12:32:52;73520.69;;;-142.53;30.44
4133;BME280;2080;51.038;7.008;2022-08-24T12:35:40;73497.41;;;-142.53;30.06
4133;BME280;2080;51.038;7.008;2022-08-24T12:40:45;73460.53;;;-142.53;30.05
4133;BME280;2080;51.038;7.008;2022-08-24T12:43:21;73445.00;;;-142.53;29.98
4133;BME280;2080;51.038;7.008;2022-08-24T12:45:48;73425.59;;;-142.53;29.44
4133;BME280;2080;51.038;7.008;2022-08-24T12:48:22;73423.66;;;-142.53;29.45
4133;BME280;2080;51.038;7.008;2022-08-24T12:59:19;73417.84;;;-142.53;28.86
4133;BME280;2080;51.038;7.008;2022-08-24T13:02:35;73380.97;;;-142.53;28.70
4133;BME280;2080;51.038;7.008;2022-08-24T13:05:09;73388.75;;;-142.53;28.51
4133;BME280;2080;51.038;7.008;2022-08-24T13:07:44;73443.06;;;-142.53;28.63
4133;BME280;2080;51.038;7.008;2022-08-24T13:10:36;73470.25;;;-142.53;28.50
4133;BME280;2080;51.038;7.008;2022-08-24T13:33:46;73305.28;;;-142.53;28.16
4133;BME280;2080;51.038;7.008;2022-08-24T13:39:02;73252.91;;;-142.53;27.71
4133;BME280;2080;51.038;7.008;2022-08-24T13:41:48;73225.72;;;-142.53;27.44
4133;BME280;2080;51.038;7.008;2022-08-24T13:55:53;73194.69;;;-142.53;27.30
4133;BME280;2080;51.038;7.008;2022-08-24T14:01:03;73159.75;;;-142.53;27.13
4133;BME280;2080;51.038;7.008;2022-08-24T14:06:30;73175.28;;;-142.53;26.82
4133;BME280;2080;51.038;7.008;2022-08-24T14:11:52;73196.63;;;-142.53;27.09
4133;BME280;2080;51.038;7.008;2022-08-24T14:17:28;73186.91;;;-142.53;27.14
4133;BME280;2080;51.038;7.008;2022-08-24T14:45:09;73155.88;;;-142.53;26.80
4133;BME280;2080;51.038;7.008;2022-08-24T14:48:02;73159.75;;;-142.53;26.68
4133;BME280;2080;51.038;7.008;2022-08-24T14:58:51;73101.53;;;-142.53;26.26
4133;BME280;2080;51.038;7.008;2022-08-24T15:01:42;73124.81;;;-142.53;26.24
4133;BME280;2080;51.038;7.008;2022-08-24T15:04:32;73103.47;;;-142.53;26.43
4133;BME280;2080;51.038;7.008;2022-08-24T15:07:30;73097.66;;;-142.53;26.26
4133;BME280;2080;51.038;7.008;2022-08-24T15:09:57;73097.66;;;-142.53;26.00
4133;BME280;2080;51.038;7.008;2022-08-24T15:12:32;73109.28;;;-142.53;25.99
4133;BME280;2080;51.038;7.008;2022-08-24T15:26:31;73093.78;;;-142.53;25.69
4133;BME280;2080;51.038;7.008;2022-08-24T15:28:58;73113.19;;;-142.53;25.61
4133;BME280;2080;51.038;7.008;2022-08-24T15:31:27;73099.59;;;-142.53;25.66
4133;BME280;2080;51.038;7.008;2022-08-24T15:33:56;73101.53;;;-142.53;25.20
4133;BME280;2080;51.038;7.008;2022-08-24T15:36:22;73120.94;;;-142.53;25.49
4133;BME280;2080;51.038;7.008;2022-08-24T15:38:47;73140.34;;;-142.53;25.77
4133;BME280;2080;51.038;7.008;2022-08-24T15:41:38;73120.94;;;-142.53;25.74
4133;BME280;2080;51.038;7.008;2022-08-24T15:44:22;73194.69;;;-142.53;26.04
4133;BME280;2080;51.038;7.008;2022-08-24T15:46:53;73167.50;;;-142.53;25.75
4133;BME280;2080;51.038;7.008;2022-08-24T15:49:30;73140.34;;;-142.53;25.69
4133;BME280;2080;51.038;7.008;2022-08-24T15:52:04;73080.19;;;-142.53;25.55
4133;BME280;2080;51.038;7.008;2022-08-24T15:54:40;72952.13;;;-142.53;24.68
4133;BME280;2080;51.038;7.008;2022-08-24T15:59:49;72472.88;;;-142.53;23.34
4133;BME280;2080;51.038;7.008;2022-08-24T16:15:47;71943.28;;;-142.53;21.49
4133;BME280;2080;51.038;7.008;2022-08-24T16:18:15;72051.91;;;-142.53;21.58
4133;BME280;2080;51.038;7.008;2022-08-24T16:20:42;72046.09;;;-142.53;21.59
4133;BME280;2080;51.038;7.008;2022-08-24T16:23:29;72018.94;;;-142.53;21.52
4133;BME280;2080;51.038;7.008;2022-08-24T16:28:50;72046.09;;;-142.53;21.73
4133;BME280;2080;51.038;7.008;2022-08-24T16:31:45;71982.06;;;-142.53;21.27
4133;BME280;2080;51.038;7.008;2022-08-24T16:34:20;71976.25;;;-142.53;21.08
4133;BME280;2080;51.038;7.008;2022-08-24T16:36:46;71939.38;;;-142.53;21.35
4133;BME280;2080;51.038;7.008;2022-08-24T16:39:12;71945.22;;;-142.53;21.05
4133;BME280;2080;51.038;7.008;2022-08-24T16:41:37;71906.41;;;-142.53;21.02
4133;BME280;2080;51.038;7.008;2022-08-24T16:44:05;71867.63;;;-142.53;20.84
4133;BME280;2080;51.038;7.008;2022-08-24T16:46:31;71914.19;;;-142.53;21.26
4133;BME280;2080;51.038;7.008;2022-08-24T16:48:56;71910.28;;;-142.53;20.88
4133;BME280;2080;51.038;7.008;2022-08-24T16:51:23;71830.75;;;-142.53;20.94
4133;BME280;2080;51.038;7.008;2022-08-24T16:53:51;71743.47;;;-142.53;21.08
4133;BME280;2080;51.038;7.008;2022-08-24T16:56:18;71708.56;;;-142.53;21.00
4133;BME280;2080;51.038;7.008;2022-08-24T16:58:48;71696.94;;;-142.53;20.58
4133;BME280;2080;51.038;7.008;2022-08-24T17:01:15;71679.47;;;-142.53;20.54
4133;BME280;2080;51.038;7.008;2022-08-24T17:03:40;71638.72;;;-142.53;20.37
4133;BME280;2080;51.038;7.008;2022-08-24T17:06:06;71630.97;;;-142.53;20.52
4133;BME280;2080;51.038;7.008;2022-08-24T17:08:37;71772.56;;;-142.53;20.80
4133;BME280;2080;51.038;7.008;2022-08-24T17:11:03;71801.66;;;-142.53;20.61
4133;BME280;2080;51.038;7.008;2022-08-24T17:13:29;71747.34;;;-142.53;20.80
4133;BME280;2080;51.038;7.008;2022-08-24T17:15:55;71720.19;;;-142.53;20.31
4133;BME280;2080;51.038;7.008;2022-08-24T17:18:21;71727.97;;;-142.53;20.37
4133;BME280;2080;51.038;7.008;2022-08-24T17:20:47;71735.72;;;-142.53;20.72